Time;durP1;ratioP1;P1;durP2;ratioP2;P2;SDS_P1;SDS_P2;PMS_P1;PMS_P2;Temp;Humidity;BMP_temperature;BMP_pressure;BME280_temperature;BME280_humidity;BME280_pressure;Samples;Min_cycle;Max_cycle;Signal;HPM_P1;HPM_P2
2022/09/20 00:00:40;;;;;;;;;;;11.30;99.90;;;;;;5054431;28;20020;-73
2022/09/20 00:03:06;;;;;;;3.55;0.00;;;11.40;99.90;;;;;;5052286;28;19905;-73
2022/09/20 00:05:36;;;;;;;3.15;0.00;;;11.30;99.90;;;;;;5053333;28;20397;-73
2022/09/20 00:08:06;;;;;;;4.07;0.00;;;11.30;99.90;;;;;;5053388;28;20025;-73
2022/09/20 00:10:36;;;;;;;0.93;0.08;;;11.20;99.90;;;;;;5053049;28;20474;-73
2022/09/20 00:13:02;;;;;;;3.08;0.47;;;11.20;99.90;;;;;;5053392;28;20105;-74
2022/09/20 00:15:29;;;;;;;7.28;0.10;;;11.10;99.90;;;;;;5052943;28;20040;-74
2022/09/20 00:17:54;;;;;;;2.58;0.35;;;11.00;99.90;;;;;;5053593;28;20569;-75
2022/09/20 00:20:20;;;;;;;3.20;0.22;;;11.00;99.90;;;;;;5053414;28;20052;-74
2022/09/20 00:22:48;;;;;;;2.00;0.00;;;11.00;99.90;;;;;;5053333;28;20025;-75
2022/09/20 00:25:15;;;;;;;0.95;0.00;;;10.90;99.90;;;;;;5053215;28;20429;-74
2022/09/20 00:27:41;;;;;;;2.20;0.30;;;10.80;99.90;;;;;;5051885;28;20492;-74
2022/09/20 00:30:07;;;;;;;4.25;0.45;;;10.60;99.90;;;;;;5053709;28;20099;-74
2022/09/20 00:32:33;;;;;;;2.20;0.00;;;10.70;99.90;;;;;;5053154;28;20025;-74
2022/09/20 00:35:09;;;;;;;2.42;0.00;;;10.60;99.90;;;;;;5053100;28;20078;-74
2022/09/20 00:37:40;;;;;;;2.50;0.00;;;10.50;99.90;;;;;;5051852;28;20017;-73
2022/09/20 00:40:19;;;;;;;4.93;0.68;;;10.40;99.90;;;;;;5052939;28;20052;-74
2022/09/20 00:42:45;;;;;;;0.90;0.00;;;10.40;99.90;;;;;;5053727;28;20377;-73
2022/09/20 00:45:25;;;;;;;0.95;0.35;;;10.30;99.90;;;;;;5053027;28;20018;-73
2022/09/20 00:48:00;;;;;;;7.63;0.55;;;10.30;99.90;;;;;;5051768;28;20040;-74
2022/09/20 00:50:36;;;;;;;3.25;0.00;;;10.30;99.90;;;;;;5053671;28;20096;-73
2022/09/20 00:53:17;;;;;;;3.35;0.03;;;10.30;99.90;;;;;;5053260;28;20075;-74
2022/09/20 00:55:50;;;;;;;2.97;0.00;;;10.40;99.90;;;;;;5057038;28;20067;-73
2022/09/20 00:58:19;;;;;;;1.73;0.00;;;10.40;99.90;;;;;;5056941;28;20029;-73
2022/09/20 01:00:45;;;;;;;;;;;10.40;99.90;;;;;;5056038;28;20017;-74
2022/09/20 01:03:13;;;;;;;3.00;0.00;;;10.50;99.90;;;;;;5056945;28;20011;-74
2022/09/20 01:05:40;;;;;;;2.37;0.00;;;10.50;99.90;;;;;;5057020;28;20588;-73
2022/09/20 01:08:07;;;;;;;2.75;0.00;;;10.60;99.90;;;;;;5055654;28;20350;-73
2022/09/20 01:10:33;;;;;;;0.63;0.00;;;10.60;99.90;;;;;;5055555;28;20017;-74
2022/09/20 01:12:59;;;;;;;2.22;0.10;;;10.70;99.90;;;;;;5056850;28;20470;-73
2022/09/20 01:15:28;;;;;;;2.10;0.00;;;10.70;99.90;;;;;;5056806;28;20159;-74
2022/09/20 01:17:57;;;;;;;3.88;0.22;;;10.70;99.90;;;;;;5056735;28;20028;-73
2022/09/20 01:20:32;;;;;;;0.98;0.00;;;10.80;99.90;;;;;;5055275;28;20029;-73
2022/09/20 01:23:31;;;;;;;1.60;0.00;;;10.80;99.90;;;;;;5056627;28;20017;-73
2022/09/20 01:26:23;;;;;;;4.47;0.30;;;10.80;99.90;;;;;;5054938;28;20037;-74
2022/09/20 01:28:57;;;;;;;2.40;0.00;;;10.90;99.90;;;;;;5057030;28;20596;-74
2022/09/20 01:31:30;;;;;;;0.93;0.00;;;10.90;99.90;;;;;;5056524;28;20025;-74
2022/09/20 01:34:00;;;;;;;0.70;0.17;;;10.90;99.90;;;;;;5055062;28;20032;-74
2022/09/20 01:36:49;;;;;;;6.65;0.70;;;11.00;99.90;;;;;;5056378;28;20039;-74
2022/09/20 01:39:44;;;;;;;2.38;0.00;;;10.90;99.90;;;;;;5035240;28;20068;-73
2022/09/20 01:42:12;;;;;;;2.63;0.10;;;10.90;99.90;;;;;;5056741;28;20520;-73
2022/09/20 01:44:38;;;;;;;6.80;0.63;;;11.00;99.90;;;;;;5056204;28;20056;-73
2022/09/20 01:47:30;;;;;;;5.55;0.68;;;11.00;99.90;;;;;;5055977;28;20501;-74
2022/09/20 01:50:27;;;;;;;2.47;0.00;;;11.00;99.90;;;;;;5054806;28;20032;-73
2022/09/20 01:53:20;;;;;;;3.97;0.03;;;11.10;99.90;;;;;;5051718;28;20086;-73
2022/09/20 01:56:21;;;;;;;0.98;0.20;;;11.10;99.90;;;;;;5054723;28;20033;-73
2022/09/20 01:59:00;;;;;;;3.72;0.10;;;11.10;99.90;;;;;;5033031;28;20500;-74
2022/09/20 02:01:40;;;;;;;0.75;0.20;;;11.10;99.90;;;;;;5055826;28;20032;-74
2022/09/20 02:04:12;;;;;;;1.98;0.08;;;11.10;99.90;;;;;;5056430;28;20060;-74
2022/09/20 02:06:59;;;;;;;2.60;0.30;;;11.10;99.90;;;;;;5053342;28;20021;-74
2022/09/20 02:09:57;;;;;;;2.22;0.20;;;11.10;99.90;;;;;;5056346;28;20466;-73
2022/09/20 02:12:35;;;;;;;4.47;0.10;;;11.10;99.90;;;;;;5055989;28;20465;-73
2022/09/20 02:15:12;;;;;;;5.22;0.20;;;11.10;99.90;;;;;;5055813;28;20060;-74
2022/09/20 02:18:16;;;;;;;3.40;0.57;;;11.10;99.90;;;;;;5055475;28;20021;-73
2022/09/20 02:21:04;;;;;;;4.15;0.10;;;11.10;99.90;;;;;;5054200;28;20025;-73
2022/09/20 02:24:15;;;;;;;4.80;0.32;;;11.20;99.90;;;;;;5055353;28;20103;-73
2022/09/20 02:27:01;;;;;;;2.50;0.30;;;11.20;99.90;;;;;;5026766;28;20048;-74
2022/09/20 02:29:51;;;;;;;4.00;0.15;;;11.10;99.90;;;;;;5054585;28;20398;-74
2022/09/20 02:32:23;;;;;;;1.70;0.45;;;11.10;99.90;;;;;;5055628;28;20055;-74
2022/09/20 02:35:04;;;;;;;2.83;0.10;;;11.10;99.90;;;;;;5055211;28;20025;-74
2022/09/20 02:38:02;;;;;;;3.50;0.52;;;11.10;99.90;;;;;;5055355;28;20170;-73
2022/09/20 02:40:49;;;;;;;2.50;0.20;;;11.10;99.90;;;;;;5055531;28;20385;-73
2022/09/20 02:43:32;;;;;;;4.55;0.47;;;11.10;99.90;;;;;;5053748;28;20507;-74
2022/09/20 02:46:00;;;;;;;3.72;0.10;;;11.10;99.90;;;;;;5055608;28;20013;-74
2022/09/20 02:48:47;;;;;;;4.68;0.45;;;11.10;99.90;;;;;;5055275;28;20435;-73
2022/09/20 02:51:38;;;;;;;3.38;0.52;;;11.20;99.90;;;;;;5055285;28;20486;-73
2022/09/20 02:54:22;;;;;;;4.70;0.30;;;11.20;99.90;;;;;;5055533;28;20028;-73
2022/09/20 02:57:12;;;;;;;3.30;0.43;;;11.10;99.90;;;;;;5054781;28;20051;-73
2022/09/20 02:59:55;;;;;;;3.53;0.47;;;11.00;99.90;;;;;;5054863;28;20394;-73
2022/09/20 03:02:27;;;;;;;1.00;0.00;;;10.90;99.90;;;;;;5054897;28;20036;-73
2022/09/20 03:05:23;;;;;;;3.33;0.00;;;10.90;99.90;;;;;;5054818;28;20035;-74
2022/09/20 03:08:13;;;;;;;3.78;0.73;;;10.80;99.90;;;;;;5054497;28;20055;-74
2022/09/20 03:11:19;;;;;;;3.90;0.85;;;10.80;99.90;;;;;;5054664;28;20037;-74
2022/09/20 03:14:04;;;;;;;2.92;0.10;;;10.60;99.90;;;;;;5053165;28;20024;-74
2022/09/20 03:17:01;;;;;;;2.88;0.50;;;10.70;99.90;;;;;;5054108;28;20025;-73
2022/09/20 03:19:50;;;;;;;2.80;0.85;;;10.70;99.90;;;;;;5055041;28;20017;-73
2022/09/20 03:22:40;;;;;;;6.97;0.10;;;10.60;99.90;;;;;;5054307;28;20029;-73
2022/09/20 03:25:25;;;;;;;5.75;0.00;;;10.60;99.90;;;;;;5052936;28;20028;-74
2022/09/20 03:28:08;;;;;;;3.35;0.30;;;10.60;99.90;;;;;;5054289;28;20048;-74
2022/09/20 03:30:40;;;;;;;6.80;1.00;;;10.60;99.90;;;;;;5054749;28;20032;-74
2022/09/20 03:33:20;;;;;;;3.83;0.00;;;10.60;99.90;;;;;;5052918;28;20020;-73
2022/09/20 03:36:23;;;;;;;3.75;0.20;;;10.60;99.90;;;;;;5054115;28;20028;-73
2022/09/20 03:39:12;;;;;;;1.05;0.00;;;10.60;99.90;;;;;;5054044;28;20537;-73
2022/09/20 03:41:52;;;;;;;2.95;0.30;;;10.50;99.90;;;;;;5054080;28;20032;-73
2022/09/20 03:44:42;;;;;;;4.00;0.10;;;10.50;99.90;;;;;;5052723;28;20029;-74
2022/09/20 03:47:14;;;;;;;2.13;0.32;;;10.50;99.90;;;;;;5053584;28;20394;-73
2022/09/20 03:49:57;;;;;;;5.07;1.20;;;10.50;99.90;;;;;;5054402;28;20025;-73
2022/09/20 03:53:11;;;;;;;2.42;0.15;;;10.50;99.90;;;;;;5052643;28;20021;-74
2022/09/20 03:56:05;;;;;;;3.42;0.75;;;10.50;99.90;;;;;;5017165;28;20034;-74
2022/09/20 03:58:41;;;;;;;3.20;0.32;;;10.50;99.90;;;;;;5053795;28;20035;-74
2022/09/20 04:01:34;;;;;;;3.53;0.38;;;10.40;99.90;;;;;;5054338;28;20412;-74
2022/09/20 04:04:10;;;;;;;2.47;0.10;;;10.40;99.90;;;;;;5052394;28;20025;-74
2022/09/20 04:06:58;;;;;;;6.65;0.30;;;10.50;99.90;;;;;;5052124;28;20083;-74
2022/09/20 04:09:32;;;;;;;1.20;0.13;;;10.50;99.90;;;;;;5053777;28;20017;-74
2022/09/20 04:12:35;;;;;;;0.68;0.00;;;10.50;99.90;;;;;;5052263;28;20029;-73
2022/09/20 04:15:26;;;;;;;3.15;0.10;;;10.50;99.90;;;;;;5053556;28;20033;-73
2022/09/20 04:17:57;;;;;;;0.20;0.00;;;10.50;99.90;;;;;;5053857;28;20518;-73
2022/09/20 04:20:45;;;;;;;1.73;0.10;;;10.50;99.90;;;;;;5052148;28;20036;-74
2022/09/20 04:23:28;;;;;;;2.75;0.30;;;10.60;99.90;;;;;;5053319;28;20496;-73
2022/09/20 04:25:54;;;;;;;2.50;0.05;;;10.60;99.90;;;;;;5053043;28;20024;-73
2022/09/20 04:28:33;;;;;;;3.25;0.30;;;10.60;99.90;;;;;;5052718;28;20028;-74
2022/09/20 04:31:05;;;;;;;2.75;0.20;;;10.60;99.90;;;;;;5053478;28;20024;-74
2022/09/20 04:33:38;;;;;;;2.08;0.10;;;10.60;99.90;;;;;;5053271;28;20093;-73
2022/09/20 04:36:36;;;;;;;1.80;0.08;;;10.60;99.90;;;;;;5053628;28;20100;-73
2022/09/20 04:39:19;;;;;;;30.02;0.65;;;10.60;99.90;;;;;;5053216;28;20025;-73
2022/09/20 04:42:22;;;;;;;3.97;0.10;;;10.60;99.90;;;;;;5053055;28;20033;-73
2022/09/20 04:45:15;;;;;;;2.40;0.30;;;10.60;99.90;;;;;;5052988;28;20033;-74
2022/09/20 04:47:54;;;;;;;1.27;0.10;;;10.60;99.90;;;;;;5052953;28;20029;-73
2022/09/20 04:50:38;;;;;;;2.85;0.10;;;10.50;99.90;;;;;;5051725;28;20017;-74
2022/09/20 04:53:29;;;;;;;3.08;0.10;;;10.50;99.90;;;;;;5051697;28;20017;-74
2022/09/20 04:55:59;;;;;;;2.10;0.10;;;10.50;99.90;;;;;;5051562;28;20441;-74
2022/09/20 04:58:51;;;;;;;1.35;0.38;;;10.50;99.90;;;;;;5053102;28;20109;-74
2022/09/20 05:01:25;;;;;;;3.50;0.10;;;10.40;99.90;;;;;;5053472;28;20029;-73
2022/09/20 05:04:10;;;;;;;3.03;0.20;;;10.40;99.90;;;;;;5052367;28;20033;-74
2022/09/20 05:07:06;;;;;;;5.00;0.20;;;10.30;99.90;;;;;;5051387;28;20103;-73
2022/09/20 05:09:32;;;;;;;2.72;0.30;;;10.30;99.90;;;;;;5052926;28;20032;-74
2022/09/20 05:12:16;;;;;;;1.95;0.10;;;10.20;99.90;;;;;;5053559;28;20021;-73
2022/09/20 05:15:00;;;;;;;1.25;0.55;;;10.20;99.90;;;;;;5051686;28;20159;-74
2022/09/20 05:17:47;;;;;;;3.70;0.00;;;10.20;99.90;;;;;;5062067;22;20086;-75
2022/09/20 05:20:12;;;;;;;3.75;0.20;;;10.10;99.90;;;;;;5052990;28;20021;-76
2022/09/20 05:23:15;;;;;;;2.95;0.57;;;10.00;99.90;;;;;;5052842;28;20549;-76
2022/09/20 05:25:47;;;;;;;2.30;0.10;;;9.90;99.90;;;;;;5052691;28;20044;-76
2022/09/20 05:28:33;;;;;;;3.47;0.20;;;9.90;99.90;;;;;;5051613;28;20017;-76
2022/09/20 05:31:32;;;;;;;5.68;0.50;;;9.80;99.90;;;;;;5053045;28;20492;-76
2022/09/20 05:34:41;;;;;;;3.33;0.75;;;9.80;99.90;;;;;;5051567;28;20025;-76
2022/09/20 05:37:19;;;;;;;;;;;9.80;99.90;;;;;;5053352;28;20397;-76
2022/09/20 05:39:52;;;;;;;1.42;0.20;;;9.80;99.90;;;;;;5054531;28;19911;-76
2022/09/20 05:42:34;;;;;;;2.67;0.20;;;9.80;99.90;;;;;;5056614;28;20025;-76
2022/09/20 05:45:22;;;;;;;3.45;0.70;;;9.70;99.90;;;;;;5055209;28;20032;-77
2022/09/20 05:48:06;;;;;;;5.20;0.68;;;9.70;99.90;;;;;;5056461;28;20139;-77
2022/09/20 05:51:05;;;;;;;6.18;0.30;;;9.70;99.90;;;;;;5056332;28;20036;-77
2022/09/20 05:53:49;;;;;;;5.45;0.57;;;9.70;99.90;;;;;;5056796;28;20028;-76
2022/09/20 05:56:47;;;;;;;4.65;0.65;;;9.70;99.90;;;;;;5056313;28;20478;-76
2022/09/20 05:59:22;;;;;;;2.30;0.10;;;9.70;99.90;;;;;;5033223;28;20047;-76
2022/09/20 06:02:14;;;;;;;6.30;0.60;;;9.80;99.90;;;;;;5056262;28;20404;-76
2022/09/20 06:04:59;;;;;;;7.38;0.40;;;9.80;99.90;;;;;;5054934;28;20541;-75
2022/09/20 06:07:37;;;;;;;3.33;0.70;;;9.90;99.90;;;;;;5056177;28;20482;-76
2022/09/20 06:10:06;;;;;;;;;;;10.00;99.90;;;;;;5055166;28;20055;-76
2022/09/20 06:12:42;;;;;;;5.30;0.30;;;10.00;99.90;;;;;;5055736;28;20363;-75
2022/09/20 06:15:20;;;;;;;4.50;0.25;;;10.10;99.90;;;;;;5054590;28;20393;-76
2022/09/20 06:18:14;;;;;;;1.52;0.20;;;10.20;99.90;;;;;;5055545;28;20036;-76
2022/09/20 06:20:43;;;;;;;2.05;0.10;;;9.00;99.90;;;;;;5056137;28;20029;-75
2022/09/20 06:23:09;;;;;;;4.43;0.40;;;10.30;99.90;;;;;;5055412;28;20021;-75
2022/09/20 06:25:46;;;;;;;1.27;0.40;;;10.30;99.90;;;;;;5054354;28;20021;-75
2022/09/20 06:28:20;;;;;;;4.22;0.43;;;10.40;99.90;;;;;;5054150;28;20017;-76
2022/09/20 06:30:48;;;;;;;4.03;0.60;;;10.50;99.90;;;;;;5055400;28;20047;-74
2022/09/20 06:33:23;;;;;;;4.07;1.40;;;10.50;99.90;;;;;;5054164;28;20474;-75
2022/09/20 06:35:55;;;;;;;3.10;0.15;;;10.50;99.90;;;;;;5053912;28;20478;-75
2022/09/20 06:41:27;;;;;;;3.33;0.25;;;10.50;99.90;;;;;;5055578;28;20166;-75
2022/09/20 06:43:57;;;;;;;4.03;0.25;;;10.50;99.90;;;;;;5055196;28;20028;-75
2022/09/20 06:46:28;;;;;;;3.20;0.20;;;10.60;99.90;;;;;;5055022;28;20035;-75
2022/09/20 06:48:54;;;;;;;2.83;0.25;;;10.70;99.90;;;;;;5053693;28;20094;-76
2022/09/20 06:51:21;;;;;;;2.58;0.43;;;10.90;99.90;;;;;;5054828;28;20029;-76
2022/09/20 06:53:47;;;;;;;8.20;1.00;;;11.10;99.90;;;;;;5053594;28;20024;-76
2022/09/20 06:56:19;;;;;;;5.55;0.52;;;11.30;99.90;;;;;;5054890;28;20028;-75
2022/09/20 06:58:46;;;;;;;3.95;0.57;;;11.40;99.90;;;;;;5053683;28;20047;-75
2022/09/20 07:01:12;;;;;;;3.88;0.32;;;11.60;99.90;;;;;;5055196;28;20040;-75
2022/09/20 07:03:38;;;;;;;5.90;0.65;;;11.70;99.90;;;;;;5054975;28;20499;-75
2022/09/20 07:06:05;;;;;;;2.92;0.60;;;11.80;99.90;;;;;;5054925;28;20421;-75
2022/09/20 07:08:30;;;;;;;4.10;0.20;;;11.90;99.90;;;;;;5053436;28;20032;-75
2022/09/20 07:10:56;;;;;;;5.40;0.32;;;12.00;99.90;;;;;;5055318;28;20021;-75
2022/09/20 07:13:22;;;;;;;4.72;0.35;;;12.10;99.90;;;;;;5053534;28;20021;-75
2022/09/20 07:15:49;;;;;;;2.78;0.45;;;12.30;99.90;;;;;;5054446;28;20045;-75
2022/09/20 07:18:16;;;;;;;6.82;0.40;;;12.40;99.90;;;;;;5053566;28;20040;-75
2022/09/20 07:20:41;;;;;;;7.25;0.75;;;12.60;99.90;;;;;;5054686;28;20138;-75
2022/09/20 07:23:07;;;;;;;6.03;0.17;;;12.70;99.90;;;;;;5055232;28;20468;-76
2022/09/20 07:25:33;;;;;;;3.40;0.15;;;12.80;99.90;;;;;;5053410;28;20028;-76
2022/09/20 07:27:58;;;;;;;1.80;0.25;;;12.80;99.90;;;;;;5054361;28;20014;-76
2022/09/20 07:30:24;;;;;;;1.67;0.15;;;12.80;99.90;;;;;;5054387;28;20017;-75
2022/09/20 07:32:50;;;;;;;4.13;0.43;;;12.90;99.90;;;;;;5054674;28;20028;-76
2022/09/20 07:35:15;;;;;;;2.00;0.40;;;13.00;99.90;;;;;;5054292;28;20049;-76
2022/09/20 07:37:41;;;;;;;5.72;0.30;;;13.00;99.90;;;;;;5053000;28;20013;-75
2022/09/20 07:40:09;;;;;;;1.48;0.22;;;13.40;99.90;;;;;;5054172;28;20024;-75
2022/09/20 07:42:35;;;;;;;1.23;0.20;;;13.10;99.90;;;;;;5052931;28;20043;-76
2022/09/20 07:45:01;;;;;;;2.95;0.63;;;13.10;99.90;;;;;;5054348;28;20025;-76
2022/09/20 07:47:30;;;;;;;3.47;0.25;;;13.10;99.90;;;;;;5053883;28;20039;-76
2022/09/20 07:49:55;;;;;;;2.38;0.28;;;13.40;99.90;;;;;;5052753;28;20021;-75
2022/09/20 07:52:21;;;;;;;1.75;0.03;;;13.20;99.90;;;;;;5052705;28;20078;-76
2022/09/20 07:54:48;;;;;;;3.08;0.38;;;13.40;99.90;;;;;;5053945;28;20025;-76
2022/09/20 07:57:15;;;;;;;4.03;0.00;;;13.30;99.90;;;;;;5053838;28;20025;-76
2022/09/20 07:59:40;;;;;;;4.10;0.10;;;13.30;99.90;;;;;;5052621;28;20032;-75
2022/09/20 08:02:14;;;;;;;0.88;0.20;;;13.30;99.90;;;;;;5054261;28;20437;-76
2022/09/20 08:04:39;;;;;;;4.10;0.32;;;13.30;99.90;;;;;;5053424;28;20481;-76
2022/09/20 08:07:05;;;;;;;2.75;0.13;;;13.60;99.90;;;;;;5053609;28;20074;-76
2022/09/20 08:09:30;;;;;;;0.47;0.20;;;13.40;99.90;;;;;;5053967;28;20053;-75
2022/09/20 08:11:57;;;;;;;2.47;0.00;;;13.40;99.90;;;;;;5052363;28;20021;-76
2022/09/20 08:14:23;;;;;;;2.30;0.17;;;13.50;99.90;;;;;;5052328;28;20018;-75
2022/09/20 08:16:50;;;;;;;0.47;0.00;;;13.60;99.90;;;;;;5053548;28;20425;-75
2022/09/20 08:19:19;;;;;;;2.60;0.57;;;13.60;99.90;;;;;;5053599;28;20017;-75
2022/09/20 08:21:45;;;;;;;6.53;0.60;;;13.80;99.90;;;;;;5053546;28;20482;-76
2022/09/20 08:24:11;;;;;;;2.72;0.40;;;14.00;99.90;;;;;;5053423;28;20056;-75
2022/09/20 08:26:37;;;;;;;12.40;0.75;;;14.20;99.90;;;;;;5053242;28;20499;-75
2022/09/20 08:29:04;;;;;;;3.95;0.30;;;14.40;99.90;;;;;;5053342;28;20172;-76
2022/09/20 08:31:33;;;;;;;3.47;0.00;;;14.50;99.90;;;;;;5053281;28;20105;-75
2022/09/20 08:34:02;;;;;;;3.67;0.55;;;14.60;99.90;;;;;;5053301;28;20481;-76
2022/09/20 08:36:29;;;;;;;3.20;0.22;;;14.70;99.90;;;;;;5054014;28;20017;-75
2022/09/20 08:38:55;;;;;;;1.83;0.00;;;14.70;99.90;;;;;;5053802;28;20025;-76
2022/09/20 08:41:32;;;;;;;2.15;0.17;;;14.70;99.90;;;;;;5053237;28;20028;-76
2022/09/20 08:44:26;;;;;;;4.45;0.30;;;14.70;99.90;;;;;;5051873;28;20067;-75
2022/09/20 08:47:06;;;;;;;7.40;0.00;;;14.60;99.90;;;;;;5053317;28;20052;-76
2022/09/20 08:49:32;;;;;;;0.75;0.00;;;14.60;99.90;;;;;;5053221;28;20031;-75
2022/09/20 08:52:01;;;;;;;1.88;0.00;;;14.60;99.90;;;;;;5053179;28;20018;-75
2022/09/20 08:54:32;;;;;;;2.63;0.03;;;14.60;99.90;;;;;;5053342;28;20018;-75
2022/09/20 08:57:04;;;;;;;2.55;0.00;;;14.70;99.90;;;;;;5053288;28;20021;-76
2022/09/20 08:59:31;;;;;;;1.65;0.00;;;14.70;99.90;;;;;;5051891;28;20021;-75
2022/09/20 09:01:58;;;;;;;3.25;0.35;;;14.80;99.90;;;;;;5053181;28;20029;-75
2022/09/20 09:04:30;;;;;;;0.52;0.00;;;14.90;99.90;;;;;;5052963;28;20032;-75
2022/09/20 09:06:56;;;;;;;4.32;0.45;;;15.00;99.90;;;;;;5053132;28;20493;-75
2022/09/20 09:09:25;;;;;;;2.38;0.00;;;15.00;99.90;;;;;;5053090;28;20021;-75
2022/09/20 09:11:52;;;;;;;4.63;0.25;;;15.10;99.90;;;;;;5053006;28;20032;-75
2022/09/20 09:17:10;;;;;;;4.80;0.00;;;15.50;99.90;;;;;;5057094;28;20405;-75
2022/09/20 09:19:56;;;;;;;7.85;0.03;;;15.80;99.90;;;;;;5055573;28;20025;-75
2022/09/20 09:22:34;;;;;;;2.30;0.00;;;15.90;99.90;;;;;;5057123;28;20074;-75
2022/09/20 09:25:17;;;;;;;2.42;0.00;;;16.00;99.90;;;;;;5056830;28;20025;-75
2022/09/20 09:28:06;;;;;;;1.13;0.00;;;15.90;99.90;;;;;;5055327;28;20136;-75
2022/09/20 09:30:33;;;;;;;;;;;15.80;99.90;;;;;;5057706;28;20481;-74
2022/09/20 09:33:20;;;;;;;0.43;0.00;;;15.70;99.90;;;;;;5055425;28;20341;-75
2022/09/20 09:35:56;;;;;;;5.53;0.00;;;15.50;99.90;;;;;;5056493;28;20025;-75
2022/09/20 09:38:33;;;;;;;0.65;0.00;;;15.40;99.90;;;;;;5056870;28;20033;-75
2022/09/20 09:41:23;;;;;;;1.50;0.30;;;15.40;99.90;;;;;;5057106;28;20025;-75
2022/09/20 09:43:59;;;;;;;1.75;0.10;;;15.30;99.90;;;;;;5055164;28;20029;-75
2022/09/20 09:46:29;;;;;;;2.50;0.20;;;15.20;99.90;;;;;;5056346;28;20025;-75
2022/09/20 09:49:06;;;;;;;0.50;0.25;;;15.00;99.90;;;;;;5056361;28;20114;-75
2022/09/20 09:51:33;;;;;;;0.32;0.10;;;15.00;99.90;;;;;;5056289;28;20024;-75
2022/09/20 09:54:00;;;;;;;1.60;0.00;;;14.90;99.90;;;;;;5070002;22;20053;-75
2022/09/20 09:56:46;;;;;;;0.70;0.10;;;15.00;99.90;;;;;;5056644;28;20481;-77
2022/09/20 09:59:39;;;;;;;1.80;0.00;;;14.90;99.90;;;;;;5056562;28;20425;-76
2022/09/20 10:02:37;;;;;;;1.10;0.05;;;15.00;99.90;;;;;;5056449;28;20021;-75
2022/09/20 10:05:34;;;;;;;3.38;0.00;;;15.00;99.90;;;;;;5054964;28;20028;-74
2022/09/20 10:08:17;;;;;;;0.35;0.00;;;15.10;99.90;;;;;;5056147;28;20390;-74
2022/09/20 10:11:01;;;;;;;0.77;0.00;;;15.10;99.90;;;;;;5054717;28;20021;-76
2022/09/20 10:13:59;;;;;;;3.85;0.00;;;15.30;99.90;;;;;;5056121;28;20021;-76
2022/09/20 10:16:54;;;;;;;1.70;0.00;;;15.50;99.90;;;;;;5055949;28;20504;-75
2022/09/20 10:19:56;;;;;;;3.45;0.25;;;15.70;99.90;;;;;;5056279;28;20028;-75
2022/09/20 10:22:45;;;;;;;1.17;0.17;;;15.90;99.90;;;;;;5055789;28;20021;-75
2022/09/20 10:25:32;;;;;;;0.55;0.00;;;16.10;99.90;;;;;;5056328;28;20505;-75
2022/09/20 10:28:26;;;;;;;0.00;0.00;;;16.20;99.90;;;;;;5055221;28;20497;-76
2022/09/20 10:31:04;;;;;;;2.42;0.00;;;16.30;99.90;;;;;;5056175;28;20086;-75
2022/09/20 10:33:51;;;;;;;0.73;0.00;;;16.40;99.90;;;;;;5055435;28;20025;-74
2022/09/20 10:36:44;;;;;;;1.23;0.00;;;16.50;99.90;;;;;;5054166;28;20023;-75
2022/09/20 10:39:29;;;;;;;0.45;0.00;;;16.70;99.90;;;;;;5054161;28;20052;-75
2022/09/20 10:45:06;;;;;;;4.28;0.00;;;17.00;99.90;;;;;;5055987;28;20036;-75
2022/09/20 10:47:46;;;;;;;3.70;0.00;;;17.30;99.90;;;;;;5053880;28;20033;-75
2022/09/20 10:50:18;;;;;;;4.50;0.00;;;17.50;99.90;;;;;;5053958;28;20028;-76
2022/09/20 10:52:59;;;;;;;2.72;0.30;;;17.60;99.90;;;;;;5053788;28;20397;-76
2022/09/20 10:55:49;;;;;;;1.45;0.00;;;17.70;99.90;;;;;;5055362;28;20577;-76
2022/09/20 10:58:45;;;;;;;2.83;0.10;;;17.60;99.90;;;;;;5053838;28;20168;-76
2022/09/20 11:01:33;;;;;;;1.23;0.00;;;17.60;99.90;;;;;;5055672;28;20047;-75
2022/09/20 11:04:17;;;;;;;2.85;0.00;;;17.60;99.90;;;;;;5055242;28;20419;-75
2022/09/20 11:06:42;;;;;;;1.00;0.00;;;17.60;99.90;;;;;;5055114;28;20450;-75
2022/09/20 11:09:13;;;;;;;6.18;0.10;;;17.70;99.90;;;;;;5054826;28;20040;-75
2022/09/20 11:11:49;;;;;;;2.63;0.10;;;17.90;99.90;;;;;;5053545;28;20536;-75
2022/09/20 11:14:32;;;;;;;1.17;0.00;;;17.90;99.90;;;;;;5054794;28;20386;-75
2022/09/20 11:17:18;;;;;;;0.43;0.00;;;18.00;99.90;;;;;;5054599;28;20028;-76
2022/09/20 11:19:59;;;;;;;1.75;0.00;;;18.10;99.90;;;;;;5055028;28;20529;-75
2022/09/20 11:22:42;;;;;;;4.05;0.43;;;18.10;99.90;;;;;;5054576;28;20397;-75
2022/09/20 11:25:19;;;;;;;2.13;0.05;;;18.10;99.90;;;;;;5053352;28;20025;-75
2022/09/20 11:28:00;;;;;;;0.10;0.00;;;18.10;99.90;;;;;;5054459;28;20198;-76
2022/09/20 11:30:29;;;;;;;4.45;0.00;;;18.10;99.90;;;;;;5054803;28;20035;-76
2022/09/20 11:33:19;;;;;;;0.05;0.00;;;18.20;99.90;;;;;;5054416;28;20097;-76
2022/09/20 11:35:51;;;;;;;0.47;0.00;;;18.30;99.90;;;;;;5054311;28;20032;-76
2022/09/20 11:38:35;;;;;;;2.22;0.00;;;18.40;99.90;;;;;;5052845;28;20021;-76
2022/09/20 11:41:14;;;;;;;0.00;0.00;;;18.30;99.90;;;;;;5054255;28;20036;-76
2022/09/20 11:43:43;;;;;;;1.77;0.00;;;18.20;99.90;;;;;;5054478;28;20418;-75
2022/09/20 11:46:14;;;;;;;6.15;0.22;;;18.20;99.90;;;;;;5054048;28;20055;-76
2022/09/20 11:48:50;;;;;;;3.75;0.15;;;18.50;99.90;;;;;;5052871;28;20017;-76
2022/09/20 11:51:24;;;;;;;2.47;0.00;;;18.80;99.90;;;;;;5053385;28;20025;-76
2022/09/20 11:54:21;;;;;;;2.83;0.00;;;19.10;99.90;;;;;;5053963;28;20032;-76
2022/09/20 11:56:52;;;;;;;2.80;0.00;;;19.10;99.90;;;;;;5052762;28;20112;-76
2022/09/20 11:59:24;;;;;;;0.43;0.00;;;19.20;99.90;;;;;;5054460;28;20346;-76
2022/09/20 12:01:54;;;;;;;2.58;0.10;;;19.20;99.90;;;;;;5053912;28;20029;-76
2022/09/20 12:04:25;;;;;;;2.95;0.00;;;19.20;99.90;;;;;;5053987;28;20045;-76
2022/09/20 12:07:21;;;;;;;0.55;0.00;;;19.10;99.90;;;;;;5053740;28;20039;-76
2022/09/20 12:10:07;;;;;;;0.68;0.00;;;18.90;99.90;;;;;;5053874;28;20086;-76
2022/09/20 12:12:45;;;;;;;1.73;0.00;;;18.80;99.90;;;;;;5053909;28;20032;-76
2022/09/20 12:15:20;;;;;;;;;;;18.70;99.90;;;;;;5052801;28;20501;-76
2022/09/20 12:17:45;;;;;;;1.65;0.00;;;18.70;99.90;;;;;;5053510;28;20334;-76
2022/09/20 12:20:33;;;;;;;1.40;0.00;;;18.70;99.90;;;;;;5052285;28;20053;-76
2022/09/20 12:23:36;;;;;;;2.47;0.00;;;18.70;99.90;;;;;;5053465;28;20025;-76
2022/09/20 12:26:04;;;;;;;0.00;0.00;;;18.70;99.90;;;;;;5053268;28;20029;-76
2022/09/20 12:28:34;;;;;;;;;;;18.80;99.90;;;;;;5052582;28;20059;-76
2022/09/20 12:31:21;;;;;;;1.27;0.00;;;18.80;99.90;;;;;;5053477;28;19905;-76
2022/09/20 12:34:14;;;;;;;2.20;0.00;;;18.90;99.90;;;;;;5052147;28;20021;-76
2022/09/20 12:36:55;;;;;;;0.60;0.00;;;19.10;99.90;;;;;;5052048;28;20029;-76
2022/09/20 12:39:26;;;;;;;7.32;1.02;;;19.10;99.10;;;;;;5053874;28;20033;-76
2022/09/20 12:42:00;;;;;;;1.85;0.00;;;19.10;99.90;;;;;;5053708;28;20399;-76
2022/09/20 12:44:29;;;;;;;2.83;0.32;;;19.10;99.90;;;;;;5053690;28;20442;-77
2022/09/20 12:47:02;;;;;;;2.05;0.03;;;19.10;99.90;;;;;;5053460;28;20036;-74
2022/09/20 12:55:26;;;;;;;1.65;0.05;;;18.90;99.50;;;;;;5053467;28;20044;-75
2022/09/20 12:58:13;;;;;;;4.43;0.08;;;18.90;99.90;;;;;;5053323;28;20036;-75
2022/09/20 13:00:45;;;;;;;0.55;0.00;;;18.90;99.90;;;;;;5051826;28;20025;-76
2022/09/20 13:03:14;;;;;;;3.95;0.00;;;18.80;99.90;;;;;;5051853;28;20433;-75
2022/09/20 13:05:44;;;;;;;0.45;0.00;;;18.90;99.90;;;;;;5053561;28;20033;-75
2022/09/20 13:08:26;;;;;;;0.68;0.00;;;19.10;99.90;;;;;;5051816;28;20024;-75
2022/09/20 13:11:23;;;;;;;1.08;0.00;;;19.10;98.60;;;;;;5053427;28;20452;-76
2022/09/20 13:14:05;;;;;;;1.45;0.00;;;19.10;99.30;;;;;;5052932;28;20017;-75
2022/09/20 13:16:55;;;;;;;0.20;0.10;;;19.30;96.90;;;;;;5051589;28;20087;-75
2022/09/20 13:19:45;;;;;;;2.00;0.20;;;19.40;99.40;;;;;;5051656;28;20107;-75
2022/09/20 13:22:22;;;;;;;0.52;0.00;;;19.40;98.90;;;;;;5052947;28;20014;-77
2022/09/20 13:24:53;;;;;;;1.98;0.00;;;19.20;97.80;;;;;;5053094;28;20025;-77
2022/09/20 13:27:33;;;;;;;0.08;0.00;;;19.00;97.70;;;;;;5053046;28;20032;-76
2022/09/20 13:30:19;;;;;;;2.45;0.00;;;18.60;97.50;;;;;;5053408;28;20023;-75
2022/09/20 13:32:46;;;;;;;0.45;0.00;;;18.40;98.70;;;;;;5052849;28;20489;-75
2022/09/20 13:35:11;;;;;;;1.27;0.00;;;18.20;99.10;;;;;;5052882;28;20021;-75
2022/09/20 13:37:41;;;;;;;4.30;0.32;;;18.20;99.90;;;;;;5051404;28;20025;-75
2022/09/20 13:40:32;;;;;;;3.03;0.40;;;18.10;99.00;;;;;;5052736;28;20104;-76
2022/09/20 13:43:01;;;;;;;1.92;0.03;;;18.10;99.90;;;;;;5053194;28;20556;-75
2022/09/20 13:45:27;;;;;;;0.95;0.00;;;18.10;99.90;;;;;;5051470;28;20058;-77
2022/09/20 13:47:54;;;;;;;3.80;0.63;;;18.00;99.90;;;;;;5052617;28;20021;-75
2022/09/20 13:50:21;;;;;;;3.58;0.00;;;18.10;99.90;;;;;;5051790;28;20035;-76
2022/09/20 13:52:54;;;;;;;2.53;0.10;;;18.20;99.90;;;;;;5051425;28;20036;-76
2022/09/20 13:55:29;;;;;;;1.75;0.00;;;18.40;99.90;;;;;;5052799;28;20389;-75
2022/09/20 13:57:58;;;;;;;0.55;0.00;;;18.70;99.20;;;;;;5052907;28;20423;-76